createdAt,value
2018-12-03T00:01:32.168Z,99007.98
2018-12-03T00:04:19.749Z,99008.61
2018-12-03T00:06:48.086Z,99013.88
2018-12-03T00:09:16.366Z,99006.56
2018-12-03T00:11:44.776Z,99010.00
2018-12-03T00:14:12.978Z,99002.07
2018-12-03T00:16:41.495Z,99002.43
2018-12-03T00:19:09.849Z,99002.13
2018-12-03T00:21:38.290Z,99001.28
2018-12-03T00:24:07.284Z,98998.34
2018-12-03T00:26:35.768Z,99014.05
2018-12-03T00:29:04.356Z,99007.65
2018-12-03T00:31:32.748Z,99010.17
2018-12-03T00:34:01.112Z,99008.30
2018-12-03T00:36:29.609Z,99008.83
2018-12-03T00:38:57.953Z,99005.22
2018-12-03T00:41:26.199Z,98998.30
2018-12-03T00:43:54.421Z,99001.73
2018-12-03T00:46:22.692Z,99005.30
2018-12-03T00:48:50.899Z,99006.43
2018-12-03T00:51:19.337Z,98994.60
2018-12-03T00:53:47.540Z,98991.68
2018-12-03T00:56:16.218Z,98999.77
2018-12-03T00:58:44.481Z,99001.47
2018-12-03T01:01:12.925Z,98997.08
2018-12-03T01:03:41.199Z,99009.48
2018-12-03T01:06:09.633Z,99007.84
2018-12-03T01:08:37.922Z,99009.13
2018-12-03T01:11:06.244Z,99011.84
2018-12-03T01:13:34.524Z,99007.96
2018-12-03T01:16:02.940Z,99006.61
2018-12-03T01:18:31.143Z,99002.34
2018-12-03T01:20:59.338Z,98997.77
2018-12-03T01:23:27.507Z,98990.68
2018-12-03T01:25:55.814Z,98994.50
2018-12-03T01:28:24.206Z,98994.37
2018-12-03T01:30:52.502Z,98990.16
2018-12-03T01:33:20.944Z,98984.56
2018-12-03T01:35:50.893Z,98986.66
2018-12-03T01:38:19.310Z,98985.36
2018-12-03T01:40:47.512Z,98981.05
2018-12-03T01:43:15.955Z,98980.75
2018-12-03T01:45:44.176Z,98972.37
2018-12-03T01:48:12.368Z,98982.80
2018-12-03T01:50:40.608Z,98981.15
2018-12-03T01:53:08.786Z,98984.84
2018-12-03T01:55:37.003Z,98982.11
2018-12-03T01:58:05.372Z,98992.11
2018-12-03T02:00:33.637Z,99003.03
2018-12-03T02:03:01.876Z,99009.21
2018-12-03T02:05:30.162Z,99005.30
2018-12-03T02:07:58.533Z,98997.86
2018-12-03T02:10:26.748Z,98989.42
2018-12-03T02:12:55.275Z,98993.08
2018-12-03T02:15:23.556Z,98991.59
2018-12-03T02:17:51.800Z,98990.51
2018-12-03T02:20:20.082Z,98985.31
2018-12-03T02:22:48.491Z,98990.97
2018-12-03T02:25:16.768Z,98994.77
2018-12-03T02:27:45.902Z,98998.80
2018-12-03T02:30:15.977Z,98989.88
2018-12-03T02:32:44.426Z,98994.42
2018-12-03T02:35:13.804Z,98987.76
2018-12-03T02:37:42.168Z,98991.16
2018-12-03T02:40:13.204Z,98980.89
2018-12-03T02:42:41.671Z,98986.29
2018-12-03T02:45:11.309Z,98993.16
2018-12-03T02:47:39.538Z,98987.50
2018-12-03T02:50:11.612Z,98984.80
2018-12-03T02:52:40.192Z,98980.25
2018-12-03T02:55:10.844Z,98984.56
2018-12-03T02:57:39.223Z,98983.10
2018-12-03T03:00:13.985Z,98981.91
2018-12-03T03:02:42.877Z,98982.99
2018-12-03T03:05:13.117Z,98975.69
2018-12-03T03:07:41.534Z,98977.40
2018-12-03T03:10:12.584Z,98977.63
2018-12-03T03:12:40.819Z,98980.07
2018-12-03T03:15:11.780Z,98980.92
2018-12-03T03:17:40.176Z,98977.93
2018-12-03T03:20:12.183Z,98974.20
2018-12-03T03:22:40.397Z,98982.87
2018-12-03T03:25:09.793Z,98963.30
2018-12-03T03:27:38.420Z,98966.20
2018-12-03T03:30:13.445Z,98971.07
2018-12-03T03:32:42.428Z,98970.55
2018-12-03T03:35:12.159Z,98965.45
2018-12-03T03:37:40.731Z,98963.04
2018-12-03T03:40:12.310Z,98962.67
2018-12-03T03:42:40.654Z,98961.62
2018-12-03T03:45:13.021Z,98969.69
2018-12-03T03:47:41.253Z,98965.67
2018-12-03T03:50:09.674Z,98968.44
2018-12-03T03:52:38.490Z,98974.04
2018-12-03T03:55:07.972Z,98974.45
2018-12-03T03:57:36.313Z,98970.05
2018-12-03T04:00:08.745Z,98965.70
2018-12-03T04:02:37.016Z,98965.61
2018-12-03T04:05:08.002Z,98973.50
2018-12-03T04:07:36.783Z,98961.12
2018-12-03T04:10:09.871Z,98964.87
2018-12-03T04:12:38.211Z,98962.05
2018-12-03T04:15:08.996Z,98965.92
2018-12-03T04:17:37.341Z,98956.52
2018-12-03T04:20:10.603Z,98957.12
2018-12-03T04:22:38.811Z,98956.60
2018-12-03T04:25:08.807Z,98961.02
2018-12-03T04:27:37.066Z,98953.72
2018-12-03T04:30:12.046Z,98953.11
2018-12-03T04:32:40.435Z,98950.38
2018-12-03T04:35:09.696Z,98941.97
2018-12-03T04:37:38.590Z,98945.50
2018-12-03T04:40:09.285Z,98942.50
2018-12-03T04:42:37.541Z,98937.97
2018-12-03T04:45:09.815Z,98941.56
2018-12-03T04:47:38.028Z,98939.80
2018-12-03T04:50:15.812Z,98950.94
2018-12-03T04:52:44.849Z,98947.67
2018-12-03T04:55:14.987Z,98937.41
2018-12-03T04:57:43.222Z,98928.71
2018-12-03T05:00:13.407Z,98949.89
2018-12-03T05:02:41.779Z,98945.88
2018-12-03T05:05:10.618Z,98942.58
2018-12-03T05:07:39.099Z,98934.75
2018-12-03T05:10:12.181Z,98933.09
2018-12-03T05:12:40.569Z,98929.83
2018-12-03T05:15:11.934Z,98933.14
2018-12-03T05:17:40.609Z,98943.67
2018-12-03T05:20:11.462Z,98936.62
2018-12-03T05:22:39.788Z,98941.42
2018-12-03T05:25:09.629Z,98941.45
2018-12-03T05:27:37.944Z,98943.03
2018-12-03T05:30:14.513Z,98948.42
2018-12-03T05:32:43.833Z,98944.11
2018-12-03T05:35:18.388Z,98944.16
2018-12-03T05:37:46.664Z,98951.83
2018-12-03T05:40:17.805Z,98951.22
2018-12-03T05:42:46.361Z,98961.00
2018-12-03T05:45:14.888Z,98957.30
2018-12-03T05:47:43.082Z,98957.22
2018-12-03T05:50:13.848Z,98961.83
2018-12-03T05:52:43.070Z,98968.36
2018-12-03T05:55:12.516Z,98962.96
2018-12-03T05:57:41.424Z,98966.09
2018-12-03T06:00:13.678Z,98957.83
2018-12-03T06:02:42.084Z,98962.95
2018-12-03T06:05:11.668Z,98953.59
2018-12-03T06:07:39.886Z,98955.17
2018-12-03T06:10:14.799Z,98957.69
2018-12-03T06:12:43.017Z,98956.37
2018-12-03T06:15:14.831Z,98958.81
2018-12-03T06:17:43.115Z,98959.86
2018-12-03T06:20:15.845Z,98960.46
2018-12-03T06:22:44.319Z,98962.07
2018-12-03T06:25:14.328Z,98965.03
2018-12-03T06:27:42.566Z,98957.98
2018-12-03T06:30:16.557Z,98962.59
2018-12-03T06:32:44.855Z,98957.34
2018-12-03T06:35:14.334Z,98962.00
2018-12-03T06:37:42.540Z,98959.90
2018-12-03T06:40:19.235Z,98959.11
2018-12-03T06:42:47.605Z,98966.05
2018-12-03T06:45:18.497Z,98965.00
2018-12-03T06:47:57.007Z,98966.56
2018-12-03T06:50:25.208Z,98956.81
2018-12-03T06:52:53.409Z,98959.66
2018-12-03T06:55:21.580Z,98961.83
2018-12-03T06:57:49.878Z,98953.26
2018-12-03T07:00:19.967Z,98949.69
2018-12-03T07:02:48.148Z,98942.16
2018-12-03T07:05:16.346Z,98938.27
2018-12-03T07:07:46.355Z,98949.77
2018-12-03T07:10:16.403Z,98955.91
2018-12-03T07:12:46.109Z,98952.81
2018-12-03T07:15:17.680Z,98945.98
2018-12-03T07:17:46.066Z,98948.46
2018-12-03T07:20:14.271Z,98946.77
2018-12-03T07:22:42.613Z,98947.86
2018-12-03T07:25:11.691Z,98949.21
2018-12-03T07:27:40.097Z,98945.69
2018-12-03T07:30:16.524Z,98952.47
2018-12-03T07:32:47.184Z,98963.08
2018-12-03T07:35:19.166Z,98964.28
2018-12-03T07:37:48.934Z,98967.44
2018-12-03T07:40:17.998Z,98970.66
2018-12-03T07:42:46.167Z,98974.52
2018-12-03T07:45:18.643Z,98973.35
2018-12-03T07:47:46.895Z,98970.54
2018-12-03T07:50:16.635Z,98973.58
2018-12-03T07:52:44.901Z,98975.61
2018-12-03T07:55:18.508Z,98973.73
2018-12-03T07:57:51.217Z,98972.23
2018-12-03T08:00:25.301Z,98981.98
2018-12-03T08:02:53.508Z,98974.27
2018-12-03T08:05:21.699Z,98973.80
2018-12-03T08:07:49.901Z,98974.36
2018-12-03T08:10:18.374Z,98975.47
2018-12-03T08:12:48.047Z,98970.04
2018-12-03T08:15:18.248Z,98967.58
2018-12-03T08:17:50.172Z,98965.08
2018-12-03T08:21:22.370Z,98968.60
2018-12-03T08:24:02.053Z,98965.19
2018-12-03T08:26:30.331Z,98973.73
2018-12-03T08:28:58.679Z,98977.33
2018-12-03T08:31:26.947Z,98987.63
2018-12-03T08:33:55.280Z,98985.52
2018-12-03T08:36:23.534Z,98975.68
2018-12-03T08:38:51.738Z,98984.95
2018-12-03T08:41:19.925Z,98998.01
2018-12-03T08:43:48.102Z,98995.84
2018-12-03T08:46:16.266Z,98998.28
2018-12-03T08:48:44.508Z,98991.47
2018-12-03T08:51:12.940Z,98992.00
2018-12-03T08:53:44.618Z,99006.22
2018-12-03T08:56:12.865Z,98997.86
2018-12-03T08:58:41.214Z,98994.94
2018-12-03T09:01:12.284Z,99001.13
2018-12-03T09:03:43.000Z,98998.66
2018-12-03T09:06:12.891Z,99000.83
2018-12-03T09:08:46.267Z,99002.57
2018-12-03T09:11:14.607Z,99003.11
2018-12-03T09:13:43.759Z,99000.75
2018-12-03T09:16:12.573Z,98998.34
2018-12-03T09:18:41.279Z,99007.30
2018-12-03T09:21:16.587Z,99006.84
2018-12-03T09:23:46.765Z,99009.00
2018-12-03T09:26:22.117Z,99015.27
2018-12-03T09:28:50.391Z,99013.17
2018-12-03T09:31:21.025Z,99012.67
2018-12-03T09:33:58.465Z,99018.39
2018-12-03T09:36:27.863Z,99021.09
2018-12-03T09:39:11.842Z,99014.59
2018-12-03T09:41:40.953Z,99018.55
2018-12-03T09:44:09.473Z,99025.56
2018-12-03T09:46:37.949Z,99020.66
2018-12-03T09:49:07.473Z,99028.39
2018-12-03T09:51:36.777Z,99022.09
2018-12-03T09:54:08.212Z,99023.70
2018-12-03T09:56:43.623Z,99035.13
2018-12-03T09:59:14.391Z,99029.01
2018-12-03T10:01:43.984Z,99029.30
2018-12-03T10:04:32.221Z,99034.20
2018-12-03T10:07:00.445Z,99020.11
2018-12-03T10:09:34.750Z,99023.98
2018-12-03T10:12:03.041Z,99016.62
2018-12-03T10:14:31.298Z,99016.08
2018-12-03T10:16:59.665Z,99016.30
2018-12-03T10:19:27.939Z,99011.34
2018-12-03T10:21:56.300Z,99007.19
2018-12-03T10:24:24.441Z,99001.28
2018-12-03T10:26:52.730Z,98999.58
2018-12-03T10:29:20.910Z,98995.67
2018-12-03T10:31:49.162Z,98992.77
2018-12-03T10:34:19.082Z,98997.02
2018-12-03T10:36:53.276Z,98973.17
2018-12-03T10:39:30.736Z,98982.80
2018-12-03T10:42:07.060Z,98995.81
2018-12-03T10:44:35.326Z,99003.59
2018-12-03T10:47:03.864Z,98996.64
2018-12-03T10:49:32.078Z,99002.78
2018-12-03T10:52:00.370Z,98996.13
2018-12-03T10:54:34.752Z,98999.18
2018-12-03T10:57:04.694Z,98997.28
2018-12-03T10:59:33.020Z,99002.34
2018-12-03T11:02:06.905Z,98999.14
2018-12-03T11:04:41.628Z,98995.08
2018-12-03T11:07:13.868Z,98997.06
2018-12-03T11:09:42.352Z,98992.82
2018-12-03T11:12:10.701Z,98992.12
2018-12-03T11:14:39.012Z,98996.36
2018-12-03T11:17:08.143Z,98994.93
2018-12-03T11:19:36.401Z,98984.76
2018-12-03T11:22:05.482Z,98987.14
2018-12-03T11:24:34.369Z,98986.61
2018-12-03T11:27:03.952Z,98985.53
2018-12-03T11:29:40.142Z,98987.17
2018-12-03T11:32:08.388Z,98979.64
2018-12-03T11:34:36.687Z,98975.82
2018-12-03T11:37:07.114Z,98978.92
2018-12-03T11:39:43.376Z,98977.09
2018-12-03T11:42:13.364Z,98978.78
2018-12-03T11:44:41.605Z,98966.33
2018-12-03T11:47:09.846Z,98966.34
2018-12-03T11:49:38.402Z,98957.28
2018-12-03T11:52:07.010Z,98971.45
2018-12-03T11:54:35.284Z,98966.65
2018-12-03T11:57:03.611Z,98964.76
2018-12-03T11:59:32.087Z,98960.34
2018-12-03T12:02:00.292Z,98968.30
2018-12-03T12:04:28.498Z,98964.58
2018-12-03T12:06:56.786Z,98977.75
2018-12-03T12:09:25.022Z,98980.72
2018-12-03T12:11:53.265Z,98968.30
2018-12-03T12:14:26.623Z,98984.33
2018-12-03T12:16:54.881Z,98988.05
2018-12-03T12:19:23.963Z,98993.08
2018-12-03T12:21:52.157Z,98996.89
2018-12-03T12:24:20.355Z,98998.05
2018-12-03T12:26:50.309Z,98999.70
2018-12-03T12:29:18.613Z,99006.75
2018-12-03T12:31:46.872Z,98997.80
2018-12-03T12:34:15.129Z,98985.34
2018-12-03T12:36:43.335Z,98971.00
2018-12-03T12:39:11.826Z,98970.98
2018-12-03T12:41:41.215Z,98954.86
2018-12-03T12:44:11.033Z,98953.55
2018-12-03T12:46:42.687Z,98952.41
2018-12-03T12:49:10.959Z,98954.06
2018-12-03T12:51:39.203Z,98955.47
2018-12-03T12:54:07.478Z,98967.81
2018-12-03T12:56:35.819Z,98957.87
2018-12-03T12:59:04.114Z,98953.05
2018-12-03T13:01:32.515Z,98944.11
2018-12-03T13:04:00.753Z,98948.33
2018-12-03T13:06:28.963Z,98940.09
2018-12-03T13:08:57.190Z,98952.48
2018-12-03T13:11:25.550Z,98965.98
2018-12-03T13:13:53.972Z,98956.59
2018-12-03T13:16:22.273Z,98940.91
2018-12-03T13:18:50.474Z,98951.09
2018-12-03T13:21:18.885Z,98944.80
2018-12-03T13:23:47.309Z,98941.63
2018-12-03T13:26:16.078Z,98935.73
2018-12-03T13:28:44.662Z,98936.19
2018-12-03T13:31:13.077Z,98930.30
2018-12-03T13:33:41.384Z,98930.23
2018-12-03T13:36:10.307Z,98940.47
2018-12-03T13:38:38.672Z,98939.80
2018-12-03T13:41:07.276Z,98937.91
2018-12-03T13:43:35.551Z,98938.16
2018-12-03T13:46:03.944Z,98941.55
2018-12-03T13:48:32.208Z,98933.39
2018-12-03T13:51:00.456Z,98935.57
2018-12-03T13:53:29.505Z,98934.58
2018-12-03T13:55:57.804Z,98935.08
2018-12-03T13:58:26.188Z,98936.52
2018-12-03T14:00:55.023Z,98939.84
2018-12-03T14:03:26.299Z,98936.73
2018-12-03T14:06:32.863Z,98945.02
2018-12-03T14:11:55.035Z,98944.84
2018-12-03T14:14:44.231Z,98956.66
2018-12-03T14:17:35.257Z,98964.47
2018-12-03T14:20:04.239Z,98966.13
2018-12-03T14:22:47.187Z,98963.15
2018-12-03T14:25:15.463Z,98966.92
2018-12-03T14:27:43.878Z,98973.14
2018-12-03T14:30:13.072Z,98976.70
2018-12-03T14:32:41.485Z,98971.28
2018-12-03T14:35:12.589Z,98975.07
2018-12-03T14:37:40.884Z,98979.39
2018-12-03T14:40:09.583Z,98974.23
2018-12-03T14:42:38.063Z,98981.28
2018-12-03T14:45:10.353Z,98992.67
2018-12-03T14:47:38.725Z,98991.28
2018-12-03T14:50:09.569Z,98990.19
2018-12-03T14:52:37.909Z,98988.03
2018-12-03T14:55:07.235Z,98981.77
2018-12-03T14:57:35.601Z,98974.70
2018-12-03T15:00:07.036Z,98972.99
2018-12-03T15:02:35.408Z,98977.34
2018-12-03T15:05:04.901Z,98979.22
2018-12-03T15:07:33.261Z,98973.28
2018-12-03T15:10:01.516Z,98989.73
2018-12-03T15:12:29.863Z,98981.53
2018-12-03T15:14:58.215Z,98976.29
2018-12-03T15:17:26.514Z,98981.19
2018-12-03T15:19:54.827Z,98979.52
2018-12-03T15:22:22.977Z,98979.28
2018-12-03T15:24:51.177Z,98972.77
2018-12-03T15:27:19.426Z,98971.59
2018-12-03T15:29:47.696Z,98965.31
2018-12-03T15:32:15.899Z,98967.05
2018-12-03T15:34:44.105Z,98972.37
2018-12-03T15:37:12.388Z,98978.79
2018-12-03T15:39:40.664Z,98980.45
2018-12-03T15:42:08.881Z,98982.62
2018-12-03T15:44:37.207Z,98981.58
2018-12-03T15:47:05.380Z,98977.48
2018-12-03T15:49:34.657Z,98984.45
2018-12-03T15:52:02.902Z,98986.03
2018-12-03T15:54:31.790Z,98980.05
2018-12-03T15:57:00.362Z,98987.33
2018-12-03T15:59:28.868Z,98986.69
2018-12-03T16:01:57.248Z,98993.38
2018-12-03T16:04:26.282Z,98992.50
2018-12-03T16:06:54.509Z,98984.89
2018-12-03T16:09:22.927Z,98989.27
2018-12-03T16:11:51.826Z,98983.91
2018-12-03T16:14:20.368Z,98990.14
2018-12-03T16:16:48.590Z,98987.14
2018-12-03T16:19:16.896Z,98983.61
2018-12-03T16:22:16.232Z,98990.76
2018-12-03T16:24:44.369Z,98989.98
2018-12-03T16:27:12.629Z,98987.80
2018-12-03T16:29:40.913Z,98989.16
2018-12-03T16:32:09.093Z,98986.11
2018-12-03T16:34:37.511Z,98981.95
2018-12-03T16:37:07.220Z,98985.95
2018-12-03T16:39:35.729Z,98986.14
2018-12-03T16:42:04.065Z,98977.50
2018-12-03T16:44:32.269Z,98975.25
2018-12-03T16:47:00.629Z,98983.27
2018-12-03T16:49:28.810Z,98987.98
2018-12-03T16:51:57.147Z,98984.91
2018-12-03T16:54:25.295Z,98990.86
2018-12-03T16:56:53.644Z,99002.60
2018-12-03T16:59:22.030Z,99003.31
2018-12-03T17:01:50.594Z,99008.25
2018-12-03T17:04:19.026Z,99012.22
2018-12-03T17:06:47.218Z,99009.67
2018-12-03T17:09:15.398Z,99004.44
2018-12-03T17:11:44.824Z,99012.95
2018-12-03T17:14:13.045Z,99008.77
2018-12-03T17:16:41.463Z,99006.32
2018-12-03T17:19:09.700Z,98999.95
2018-12-03T17:22:26.984Z,98998.04
2018-12-03T17:24:55.171Z,99003.05
2018-12-03T17:27:25.173Z,99011.41
2018-12-03T17:29:53.509Z,99001.47
2018-12-03T17:32:21.932Z,99007.62
2018-12-03T17:34:50.184Z,99006.23
2018-12-03T17:37:18.678Z,99005.56
2018-12-03T17:39:46.893Z,99001.25
2018-12-03T17:42:15.265Z,98997.69
2018-12-03T17:44:43.519Z,98995.85
2018-12-03T17:47:12.025Z,98989.59
2018-12-03T17:49:40.402Z,98981.53
2018-12-03T17:52:08.632Z,98992.36
2018-12-03T17:54:36.883Z,98990.01
2018-12-03T17:57:05.105Z,98988.05
2018-12-03T17:59:33.439Z,98983.02
2018-12-03T18:02:01.725Z,98987.12
2018-12-03T18:04:30.029Z,98988.42
2018-12-03T18:06:58.236Z,98989.20
2018-12-03T18:09:26.494Z,98982.31
2018-12-03T18:11:54.734Z,98986.72
2018-12-03T18:14:22.928Z,98973.92
2018-12-03T18:16:52.004Z,98980.22
2018-12-03T18:19:20.926Z,98971.82
2018-12-03T18:21:49.207Z,98975.49
2018-12-03T18:24:17.834Z,98976.62
2018-12-03T18:26:46.060Z,98978.31
2018-12-03T18:29:14.301Z,98979.13
2018-12-03T18:31:42.633Z,98978.75
2018-12-03T18:34:10.925Z,98969.22
2018-12-03T18:36:39.315Z,98967.44
2018-12-03T18:39:08.948Z,98966.50
2018-12-03T18:41:37.194Z,98967.95
2018-12-03T18:44:07.658Z,98960.30
2018-12-03T18:46:35.989Z,98960.61
2018-12-03T18:49:11.670Z,98962.48
2018-12-03T18:51:41.783Z,98961.55
2018-12-03T18:54:10.053Z,98966.05
2018-12-03T18:56:39.477Z,98969.00
2018-12-03T18:59:09.007Z,98960.34
2018-12-03T19:01:37.360Z,98965.78
2018-12-03T19:04:05.655Z,98965.48
2018-12-03T19:06:33.953Z,98965.44
2018-12-03T19:09:05.973Z,98963.87
2018-12-03T19:11:34.216Z,98959.30
2018-12-03T19:14:02.516Z,98953.38
2018-12-03T19:16:30.883Z,98963.50
2018-12-03T19:18:59.142Z,98956.64
2018-12-03T19:21:27.347Z,98963.01
2018-12-03T19:23:55.817Z,98966.42
2018-12-03T19:26:24.131Z,98972.61
2018-12-03T19:28:52.383Z,98966.20
2018-12-03T19:31:20.745Z,98973.47
2018-12-03T19:33:49.135Z,98971.27
2018-12-03T19:36:17.504Z,98973.88
2018-12-03T19:38:46.182Z,98974.22
2018-12-03T19:41:14.548Z,98978.31
2018-12-03T19:43:42.772Z,98976.47
2018-12-03T19:46:11.154Z,98972.12
2018-12-03T19:48:39.611Z,98974.82
2018-12-03T19:51:07.854Z,98966.91
2018-12-03T19:53:36.187Z,98962.22
2018-12-03T19:56:04.537Z,98963.30
2018-12-03T19:58:38.210Z,98967.53
2018-12-03T20:01:06.523Z,98959.11
2018-12-03T20:03:35.243Z,98964.39
2018-12-03T20:06:04.097Z,98963.05
2018-12-03T20:08:39.160Z,98961.61
2018-12-03T20:11:08.058Z,98955.69
2018-12-03T20:13:36.296Z,98958.20
2018-12-03T20:16:05.630Z,98960.64
2018-12-03T20:18:34.210Z,98960.78
2018-12-03T20:21:11.478Z,98950.44
2018-12-03T20:23:48.699Z,98953.69
2018-12-03T20:26:41.030Z,98958.52
2018-12-03T20:30:09.470Z,98961.27
2018-12-03T20:32:49.327Z,98960.22
2018-12-03T20:35:28.458Z,98957.16
2018-12-03T20:38:09.132Z,98953.69
2018-12-03T20:41:44.392Z,98959.09
2018-12-03T20:44:31.653Z,98957.00
2018-12-03T20:47:22.263Z,98949.98
2018-12-03T20:50:59.554Z,98950.11
2018-12-03T20:53:35.673Z,98959.25
2018-12-03T20:56:05.403Z,98963.91
2018-12-03T20:58:33.623Z,98966.05
2018-12-03T21:01:03.399Z,98966.83
2018-12-03T21:03:33.243Z,98963.87
2018-12-03T21:06:01.452Z,98964.66
2018-12-03T21:08:29.733Z,98969.34
2018-12-03T21:10:57.995Z,98972.00
2018-12-03T21:13:27.192Z,98969.65
2018-12-03T21:15:58.705Z,98967.17
2018-12-03T21:18:29.047Z,98962.90
2018-12-03T21:20:57.265Z,98963.00
2018-12-03T21:23:25.583Z,98964.17
2018-12-03T21:25:53.856Z,98960.22
2018-12-03T21:28:22.479Z,98968.92
2018-12-03T21:30:50.774Z,98974.93
2018-12-03T21:33:18.999Z,98975.14
2018-12-03T21:35:47.197Z,98977.70
2018-12-03T21:38:15.725Z,98980.45
2018-12-03T21:40:43.929Z,98991.95
2018-12-03T21:43:12.230Z,98989.45
2018-12-03T21:45:40.440Z,98982.67
2018-12-03T21:48:08.677Z,98981.80
2018-12-03T21:50:36.892Z,98993.89
2018-12-03T21:53:05.252Z,98989.12
2018-12-03T21:55:33.469Z,98994.91
2018-12-03T21:58:01.684Z,98994.55
2018-12-03T22:00:29.864Z,98999.65
2018-12-03T22:02:58.010Z,99001.52
2018-12-03T22:05:26.821Z,99002.87
2018-12-03T22:07:54.959Z,99003.73
2018-12-03T22:10:23.092Z,99009.74
2018-12-03T22:12:51.290Z,99013.19
2018-12-03T22:15:19.476Z,99016.09
2018-12-03T22:17:47.745Z,99016.66
2018-12-03T22:20:15.952Z,99024.50
2018-12-03T22:22:44.161Z,99024.97
2018-12-03T22:25:12.364Z,99024.72
2018-12-03T22:27:41.417Z,99034.41
2018-12-03T22:30:10.842Z,99030.65
2018-12-03T22:32:39.139Z,99032.63
2018-12-03T22:35:07.576Z,99037.44
2018-12-03T22:37:35.799Z,99031.27
2018-12-03T22:40:04.925Z,99037.62
2018-12-03T22:42:33.145Z,99036.84
2018-12-03T22:45:01.409Z,99034.88
2018-12-03T22:47:29.680Z,99030.70
2018-12-03T22:49:57.986Z,99030.58
2018-12-03T22:52:26.252Z,99026.02
2018-12-03T22:54:54.857Z,99031.22
2018-12-03T22:57:23.901Z,99031.84
2018-12-03T22:59:52.226Z,99032.23
2018-12-03T23:02:20.584Z,99039.61
2018-12-03T23:04:48.815Z,99037.95
2018-12-03T23:07:17.132Z,99042.30
2018-12-03T23:09:45.306Z,99047.33
2018-12-03T23:12:14.583Z,99039.20
2018-12-03T23:14:43.152Z,99050.09
2018-12-03T23:17:11.534Z,99054.64
2018-12-03T23:19:39.909Z,99060.02
2018-12-03T23:22:08.116Z,99058.42
2018-12-03T23:24:36.361Z,99074.14
2018-12-03T23:27:04.705Z,99076.14
2018-12-03T23:29:33.572Z,99078.69
2018-12-03T23:32:01.851Z,99083.55
2018-12-03T23:34:30.094Z,99084.13
2018-12-03T23:36:58.284Z,99080.61
2018-12-03T23:39:26.465Z,99080.42
2018-12-03T23:41:54.805Z,99074.84
2018-12-03T23:44:23.011Z,99069.44
2018-12-03T23:46:51.472Z,99066.12
2018-12-03T23:49:19.648Z,99068.88
2018-12-03T23:54:35.817Z,99071.37
2018-12-03T23:57:10.913Z,99080.23
2018-12-03T23:59:39.105Z,99087.61
